createdAt,value
2023-03-29T00:00:16.038Z,35.982639
2023-03-29T00:05:15.666Z,36.141549
2023-03-29T00:10:15.503Z,36.304930
2023-03-29T00:15:20.694Z,36.388028
2023-03-29T00:20:15.977Z,36.317606
2023-03-29T00:25:16.559Z,36.177465
2023-03-29T00:30:15.858Z,36.415493
2023-03-29T00:35:16.419Z,36.460839
2023-03-29T00:40:16.062Z,36.556643
2023-03-29T00:45:16.063Z,36.548951
2023-03-29T00:50:15.977Z,36.625352
2023-03-29T00:55:15.732Z,36.708333
2023-03-29T01:00:16.808Z,36.623776
2023-03-29T01:05:16.530Z,36.525000
2023-03-29T01:10:15.930Z,36.580556
2023-03-29T01:15:15.843Z,36.475172
2023-03-29T01:20:16.631Z,36.584615
2023-03-29T01:25:16.153Z,36.337762
2023-03-29T01:30:15.656Z,36.234483
2023-03-29T01:35:16.315Z,36.600694
2023-03-29T01:40:15.734Z,36.551049
2023-03-29T01:45:16.236Z,36.628472
2023-03-29T01:50:15.999Z,36.920000
2023-03-29T01:55:15.938Z,36.884828
2023-03-29T02:00:16.546Z,36.850345
2023-03-29T02:05:16.990Z,36.875862
2023-03-29T02:10:16.620Z,36.868493
2023-03-29T02:15:16.488Z,36.833793
2023-03-29T02:20:16.260Z,36.834014
2023-03-29T02:25:16.380Z,36.681507
2023-03-29T02:30:16.463Z,36.670833
2023-03-29T02:35:17.546Z,36.540690
2023-03-29T02:40:16.215Z,36.964138
2023-03-29T02:45:16.357Z,37.142069
2023-03-29T02:50:15.726Z,37.088889
2023-03-29T02:55:16.840Z,37.227778
2023-03-29T03:00:16.348Z,37.741667
2023-03-29T03:05:16.535Z,37.800690
2023-03-29T03:10:16.858Z,37.482192
2023-03-29T03:15:15.663Z,37.565753
2023-03-29T03:20:20.938Z,37.502055
2023-03-29T03:25:16.896Z,37.460274
2023-03-29T03:30:15.573Z,37.453425
2023-03-29T03:35:15.911Z,36.855479
2023-03-29T03:40:22.740Z,36.813103
2023-03-29T03:45:15.893Z,36.932192
2023-03-29T03:50:15.743Z,37.291781
2023-03-29T03:55:15.807Z,39.200694
2023-03-29T04:00:16.747Z,41.122069
2023-03-29T04:05:16.016Z,40.088966
2023-03-29T04:10:15.899Z,38.850685
2023-03-29T04:15:16.588Z,37.571429
2023-03-29T04:20:15.754Z,37.381208
2023-03-29T04:25:16.602Z,37.311644
2023-03-29T04:30:16.441Z,37.253741
2023-03-29T04:35:17.044Z,37.311644
2023-03-29T04:40:16.248Z,36.736301
2023-03-29T04:45:16.120Z,36.970068
2023-03-29T04:50:15.569Z,37.402041
2023-03-29T04:55:15.995Z,37.846939
2023-03-29T05:00:16.926Z,38.521379
2023-03-29T05:05:16.681Z,38.707483
2023-03-29T05:10:16.464Z,38.299324
2023-03-29T05:15:16.496Z,38.931507
2023-03-29T05:20:15.897Z,39.537415
2023-03-29T05:25:16.097Z,40.075839
2023-03-29T05:30:15.893Z,39.980537
2023-03-29T05:35:15.687Z,39.448993
2023-03-29T05:40:16.635Z,38.066443
2023-03-29T05:45:16.150Z,37.952349
2023-03-29T05:50:16.131Z,37.551333
2023-03-29T05:55:16.242Z,37.260403
2023-03-29T06:00:16.480Z,37.460667
2023-03-29T06:05:15.668Z,37.519333
2023-03-29T06:10:16.290Z,37.644667
2023-03-29T06:15:16.611Z,37.991946
2023-03-29T06:20:17.252Z,38.424161
2023-03-29T06:25:16.002Z,38.751333
2023-03-29T06:30:17.216Z,38.776351
2023-03-29T06:35:16.123Z,38.587838
2023-03-29T06:40:16.273Z,38.672483
2023-03-29T06:45:16.526Z,38.914094
2023-03-29T06:50:16.577Z,39.018121
2023-03-29T06:55:17.043Z,39.725676
2023-03-29T07:00:15.606Z,39.551678
2023-03-29T07:05:15.993Z,39.813605
2023-03-29T07:10:16.299Z,40.390541
2023-03-29T07:15:16.617Z,40.193197
2023-03-29T07:20:16.089Z,40.272789
2023-03-29T07:25:16.337Z,40.171034
2023-03-29T07:30:15.986Z,41.862759
2023-03-29T07:35:16.133Z,43.846897
2023-03-29T07:40:16.900Z,44.203401
2023-03-29T07:45:17.478Z,44.645946
2023-03-29T07:50:16.966Z,46.516327
2023-03-29T07:55:16.858Z,45.883562
2023-03-29T08:00:16.081Z,45.444521
2023-03-29T08:05:23.189Z,46.362838
2023-03-29T08:10:20.517Z,46.790476
2023-03-29T08:15:17.496Z,47.472109
2023-03-29T08:20:16.816Z,47.636301
2023-03-29T08:25:17.545Z,48.526027
2023-03-29T08:30:17.037Z,49.526712
2023-03-29T08:35:15.863Z,50.491724
2023-03-29T08:40:15.694Z,50.813194
2023-03-29T08:45:15.669Z,50.924138
2023-03-29T08:50:16.191Z,50.544444
2023-03-29T08:55:15.577Z,50.470833
2023-03-29T09:00:17.510Z,50.428671
2023-03-29T09:05:16.937Z,50.061538
2023-03-29T09:10:17.004Z,50.756643
2023-03-29T09:15:15.563Z,51.384028
2023-03-29T09:20:16.898Z,51.582517
2023-03-29T09:25:15.628Z,51.681944
2023-03-29T09:30:16.672Z,51.974825
2023-03-29T09:35:16.095Z,51.968056
2023-03-29T09:40:16.740Z,52.181944
2023-03-29T09:45:16.641Z,52.091608
2023-03-29T09:50:29.577Z,52.420000
2023-03-29T09:55:16.083Z,52.294483
2023-03-29T10:00:15.839Z,51.871034
2023-03-29T10:05:15.571Z,51.820690
2023-03-29T10:10:15.774Z,52.112500
2023-03-29T10:15:26.668Z,52.355556
2023-03-29T10:20:15.798Z,53.420833
2023-03-29T10:25:16.365Z,54.058042
2023-03-29T10:30:16.118Z,53.986897
2023-03-29T10:35:15.812Z,53.930769
2023-03-29T10:40:16.847Z,55.299306
2023-03-29T10:45:16.052Z,55.308966
2023-03-29T10:50:15.892Z,55.403472
2023-03-29T10:55:15.871Z,56.618621
2023-03-29T11:00:15.920Z,59.924460
2023-03-29T11:05:16.387Z,61.486429
2023-03-29T11:10:15.686Z,61.615714
2023-03-29T11:15:16.883Z,61.358696
2023-03-29T11:20:16.227Z,61.410638
2023-03-29T11:25:16.025Z,60.442361
2023-03-29T11:30:15.640Z,59.703497
2023-03-29T11:35:16.582Z,59.414085
2023-03-29T11:40:17.197Z,59.107746
2023-03-29T11:45:16.724Z,58.140690
2023-03-29T11:50:16.114Z,57.494521
2023-03-29T11:55:16.849Z,57.246259
2023-03-29T12:00:16.821Z,57.049660
2023-03-29T12:05:16.741Z,58.883673
2023-03-29T12:10:17.187Z,59.707534
2023-03-29T12:15:16.216Z,60.305442
2023-03-29T12:20:18.165Z,61.347945
2023-03-29T12:25:18.167Z,61.372109
2023-03-29T12:30:15.950Z,61.016107
2023-03-29T12:35:16.464Z,60.951370
2023-03-29T12:40:16.165Z,60.334247
2023-03-29T12:45:17.830Z,60.022917
2023-03-29T12:50:15.956Z,58.042553
2023-03-29T12:55:16.103Z,57.088112
2023-03-29T13:00:17.984Z,55.890210
2023-03-29T13:05:16.751Z,56.164539
2023-03-29T13:10:16.276Z,56.097241
2023-03-29T13:15:15.726Z,56.022069
2023-03-29T13:20:15.767Z,55.313986
2023-03-29T13:25:16.522Z,55.813103
2023-03-29T13:30:16.416Z,56.954167
2023-03-29T13:35:15.800Z,59.614583
2023-03-29T13:40:15.667Z,62.780420
2023-03-29T13:45:16.846Z,63.488435
2023-03-29T13:50:16.413Z,64.088356
2023-03-29T13:55:16.552Z,61.843836
2023-03-29T14:00:16.763Z,61.097222
2023-03-29T14:05:17.301Z,60.694366
2023-03-29T14:10:21.451Z,60.863194
2023-03-29T14:15:15.714Z,61.200000
2023-03-29T14:20:16.743Z,60.924306
2023-03-29T14:25:16.044Z,60.040690
2023-03-29T14:30:16.557Z,59.647586
2023-03-29T14:35:21.894Z,59.088966
2023-03-29T14:40:16.076Z,59.180000
2023-03-29T14:45:16.191Z,58.707534
2023-03-29T14:50:16.228Z,59.288889
2023-03-29T14:55:16.026Z,59.360690
2023-03-29T15:00:17.033Z,59.051389
2023-03-29T15:05:16.771Z,59.372414
2023-03-29T15:10:17.163Z,58.931944
2023-03-29T15:15:17.195Z,58.301418
2023-03-29T15:20:16.366Z,58.383217
2023-03-29T15:25:16.508Z,58.905674
2023-03-29T15:30:17.428Z,58.683099
2023-03-29T15:35:15.712Z,58.571831
2023-03-29T15:40:16.399Z,58.367133
2023-03-29T15:45:16.246Z,57.204828
2023-03-29T15:50:16.005Z,56.176190
2023-03-29T15:55:16.336Z,55.421918
2023-03-29T16:00:16.186Z,55.605517
2023-03-29T16:05:16.499Z,54.616084
2023-03-29T16:10:21.834Z,54.057343
2023-03-29T16:15:17.997Z,55.285211
2023-03-29T16:20:16.934Z,56.520139
2023-03-29T16:25:15.832Z,55.733793
2023-03-29T16:30:16.825Z,55.283333
2023-03-29T16:35:16.211Z,55.862329
2023-03-29T16:40:15.901Z,54.663087
2023-03-29T16:45:15.747Z,55.704795
2023-03-29T16:50:16.104Z,56.364828
2023-03-29T16:55:15.820Z,56.332168
2023-03-29T17:00:16.232Z,55.182639
2023-03-29T17:05:16.464Z,53.879167
2023-03-29T17:10:16.882Z,52.971034
2023-03-29T17:15:15.654Z,52.318750
2023-03-29T17:20:16.556Z,52.109655
2023-03-29T17:25:16.302Z,52.263699
2023-03-29T17:30:16.896Z,51.900685
2023-03-29T17:35:18.349Z,51.854422
2023-03-29T17:40:16.390Z,50.685417
2023-03-29T17:45:15.849Z,49.947945
2023-03-29T17:50:16.480Z,49.268750
2023-03-29T17:55:16.116Z,49.037241
2023-03-29T18:00:16.013Z,48.715972
2023-03-29T18:05:16.548Z,48.072222
2023-03-29T18:10:15.760Z,48.514384
2023-03-29T18:15:17.738Z,48.560690
2023-03-29T18:20:16.629Z,48.245517
2023-03-29T18:25:15.968Z,48.220000
2023-03-29T18:30:16.334Z,48.313103
2023-03-29T18:35:17.685Z,47.457241
2023-03-29T18:40:16.507Z,47.336111
2023-03-29T18:45:16.743Z,47.364583
2023-03-29T18:50:16.441Z,46.254483
2023-03-29T18:55:16.157Z,46.533333
2023-03-29T19:00:16.049Z,45.930556
2023-03-29T19:05:15.970Z,45.999306
2023-03-29T19:10:16.417Z,45.856944
2023-03-29T19:15:15.716Z,44.385616
2023-03-29T19:20:17.102Z,45.318621
2023-03-29T19:25:16.673Z,44.789796
2023-03-29T19:30:18.295Z,44.769178
2023-03-29T19:35:16.009Z,45.365986
2023-03-29T19:40:16.320Z,45.176712
2023-03-29T19:45:15.941Z,45.020139
2023-03-29T19:50:17.596Z,45.404895
2023-03-29T19:55:16.554Z,46.454483
2023-03-29T20:00:16.409Z,45.926712
2023-03-29T20:05:16.662Z,46.160811
2023-03-29T20:10:15.992Z,45.658108
2023-03-29T20:15:15.558Z,45.932215
2023-03-29T20:20:15.990Z,46.173288
2023-03-29T20:25:16.596Z,46.237671
2023-03-29T20:30:16.149Z,46.438095
2023-03-29T20:35:16.970Z,46.183673
2023-03-29T20:40:16.947Z,45.636486
2023-03-29T20:45:15.919Z,45.210884
2023-03-29T20:50:16.823Z,44.756081
2023-03-29T20:55:16.006Z,45.287162
2023-03-29T21:00:15.877Z,45.399333
2023-03-29T21:05:21.334Z,45.048322
2023-03-29T21:10:15.795Z,44.575333
2023-03-29T21:15:16.272Z,44.006040
2023-03-29T21:20:21.350Z,44.411409
2023-03-29T21:25:15.627Z,44.310667
2023-03-29T21:30:17.375Z,40.923129
2023-03-29T21:35:17.406Z,39.757432
2023-03-29T21:40:15.984Z,39.306081
2023-03-29T21:45:16.663Z,38.654362
2023-03-29T21:50:15.613Z,38.111724
2023-03-29T21:55:15.962Z,38.666667
2023-03-29T22:00:15.892Z,39.646207
2023-03-29T22:05:15.875Z,40.052083
2023-03-29T22:10:15.700Z,39.209028
2023-03-29T22:15:16.185Z,39.349650
2023-03-29T22:20:16.317Z,38.953147
2023-03-29T22:25:16.222Z,37.181560
2023-03-29T22:30:16.468Z,36.210638
2023-03-29T22:35:16.497Z,34.980142
2023-03-29T22:40:16.837Z,34.094326
2023-03-29T22:45:16.292Z,34.296454
2023-03-29T22:50:15.646Z,33.556338
2023-03-29T22:55:15.734Z,33.764789
2023-03-29T23:00:15.994Z,32.294326
2023-03-29T23:05:16.250Z,32.653901
2023-03-29T23:10:15.678Z,31.995745
2023-03-29T23:15:15.650Z,31.870213
2023-03-29T23:20:17.847Z,31.960284
2023-03-29T23:25:16.602Z,30.807092
2023-03-29T23:30:17.019Z,30.968085
2023-03-29T23:35:16.635Z,30.532624
2023-03-29T23:40:17.169Z,29.895035
2023-03-29T23:45:15.742Z,30.637589
2023-03-29T23:50:16.872Z,31.333333
2023-03-29T23:55:15.817Z,31.634752
